sensor_id;sensor_type;location;lat;lon;timestamp;pressure;altitude;pressure_sealevel;temperature;humidity
36932;BME280;22847;42.654;23.370;2023-03-11T00:00:50;92935.50;;;12.83;89.25
36932;BME280;22847;42.654;23.370;2023-03-11T00:03:17;92729.16;;;11.70;89.15
36932;BME280;22847;42.654;23.370;2023-03-11T00:05:44;92914.41;;;12.78;88.70
36932;BME280;22847;42.654;23.370;2023-03-11T00:08:13;92724.72;;;11.64;88.44
36932;BME280;22847;42.654;23.370;2023-03-11T00:10:43;92941.19;;;13.13;86.71
36932;BME280;22847;42.654;23.370;2023-03-11T00:13:11;92920.81;;;13.02;85.71
36932;BME280;22847;42.654;23.370;2023-03-11T00:15:38;92922.44;;;12.96;82.07
36932;BME280;22847;42.654;23.370;2023-03-11T00:18:04;92717.06;;;11.43;82.94
36932;BME280;22847;42.654;23.370;2023-03-11T00:20:36;92777.00;;;11.90;81.85
36932;BME280;22847;42.654;23.370;2023-03-11T00:23:03;92893.66;;;12.77;80.36
36932;BME280;22847;42.654;23.370;2023-03-11T00:25:31;92895.06;;;12.60;80.89
36932;BME280;22847;42.654;23.370;2023-03-11T00:27:57;92917.00;;;12.78;81.11
36932;BME280;22847;42.654;23.370;2023-03-11T00:30:23;92915.22;;;11.98;82.48
36932;BME280;22847;42.654;23.370;2023-03-11T00:32:51;92874.31;;;12.32;81.40
36932;BME280;22847;42.654;23.370;2023-03-11T00:35:20;92734.34;;;11.57;81.27
36932;BME280;22847;42.654;23.370;2023-03-11T00:37:48;92887.41;;;12.71;80.23
36932;BME280;22847;42.654;23.370;2023-03-11T00:40:18;92720.91;;;10.99;82.44
36932;BME280;22847;42.654;23.370;2023-03-11T00:42:44;92728.00;;;11.12;82.80
36932;BME280;22847;42.654;23.370;2023-03-11T00:45:10;92843.28;;;11.89;82.33
36932;BME280;22847;42.654;23.370;2023-03-11T00:47:36;92716.91;;;10.28;86.39
36932;BME280;22847;42.654;23.370;2023-03-11T00:50:02;92910.31;;;11.76;85.57
36932;BME280;22847;42.654;23.370;2023-03-11T00:52:27;92893.19;;;12.21;83.13
36932;BME280;22847;42.654;23.370;2023-03-11T00:54:53;92894.22;;;12.33;82.66
36932;BME280;22847;42.654;23.370;2023-03-11T00:57:19;92676.47;;;11.27;81.50
36932;BME280;22847;42.654;23.370;2023-03-11T00:59:44;92817.13;;;11.76;84.03
36932;BME280;22847;42.654;23.370;2023-03-11T01:02:10;92809.31;;;11.89;83.31
36932;BME280;22847;42.654;23.370;2023-03-11T01:04:35;92851.00;;;12.30;82.45
36932;BME280;22847;42.654;23.370;2023-03-11T01:07:01;92840.75;;;12.22;82.73
36932;BME280;22847;42.654;23.370;2023-03-11T01:09:26;92822.84;;;12.19;81.94
36932;BME280;22847;42.654;23.370;2023-03-11T01:11:51;92838.91;;;12.16;82.41
36932;BME280;22847;42.654;23.370;2023-03-11T01:14:18;92850.59;;;12.27;81.89
36932;BME280;22847;42.654;23.370;2023-03-11T01:16:43;92554.56;;;10.14;82.63
36932;BME280;22847;42.654;23.370;2023-03-11T01:19:10;92876.09;;;11.16;87.60
36932;BME280;22847;42.654;23.370;2023-03-11T01:21:36;92848.13;;;11.45;87.64
36932;BME280;22847;42.654;23.370;2023-03-11T01:24:01;92784.25;;;11.34;85.64
36932;BME280;22847;42.654;23.370;2023-03-11T01:26:26;92821.75;;;11.27;88.27
36932;BME280;22847;42.654;23.370;2023-03-11T01:28:52;92826.25;;;11.05;90.68
36932;BME280;22847;42.654;23.370;2023-03-11T01:31:17;92630.78;;;10.29;88.16
36932;BME280;22847;42.654;23.370;2023-03-11T01:33:43;92802.59;;;11.06;89.03
36932;BME280;22847;42.654;23.370;2023-03-11T01:36:08;92643.25;;;9.29;93.18
36932;BME280;22847;42.654;23.370;2023-03-11T01:38:33;92611.78;;;9.73;91.48
36932;BME280;22847;42.654;23.370;2023-03-11T01:40:59;92649.25;;;10.35;89.24
36932;BME280;22847;42.654;23.370;2023-03-11T01:48:37;92727.31;;;10.56;90.07
36932;BME280;22847;42.654;23.370;2023-03-11T01:51:04;92749.75;;;10.85;89.22
36932;BME280;22847;42.654;23.370;2023-03-11T01:53:31;92746.50;;;10.76;89.96
36932;BME280;22847;42.654;23.370;2023-03-11T01:55:57;92792.47;;;10.90;89.15
36932;BME280;22847;42.654;23.370;2023-03-11T01:58:25;92815.34;;;11.29;88.20
36932;BME280;22847;42.654;23.370;2023-03-11T02:00:52;92717.94;;;11.09;86.58
36932;BME280;22847;42.654;23.370;2023-03-11T02:03:25;92779.31;;;11.59;84.95
36932;BME280;22847;42.654;23.370;2023-03-11T02:05:53;92837.44;;;11.74;85.14
36932;BME280;22847;42.654;23.370;2023-03-11T02:08:20;92726.25;;;11.26;85.26
36932;BME280;22847;42.654;23.370;2023-03-11T02:10:45;92700.75;;;11.28;84.40
36932;BME280;22847;42.654;23.370;2023-03-11T02:13:12;92682.78;;;10.51;87.58
36932;BME280;22847;42.654;23.370;2023-03-11T02:15:37;92820.44;;;11.50;87.86
36932;BME280;22847;42.654;23.370;2023-03-11T02:18:05;92824.44;;;11.46;87.31
36932;BME280;22847;42.654;23.370;2023-03-11T02:20:52;92842.47;;;11.82;86.00
36932;BME280;22847;42.654;23.370;2023-03-11T02:23:24;92844.63;;;11.72;85.98
36932;BME280;22847;42.654;23.370;2023-03-11T02:26:10;92825.84;;;11.49;86.31
36932;BME280;22847;42.654;23.370;2023-03-11T02:28:39;92852.38;;;11.59;87.15
36932;BME280;22847;42.654;23.370;2023-03-11T02:31:07;92821.84;;;11.53;86.30
36932;BME280;22847;42.654;23.370;2023-03-11T02:33:33;92837.84;;;11.78;85.84
36932;BME280;22847;42.654;23.370;2023-03-11T02:36:01;92827.09;;;11.59;85.42
36932;BME280;22847;42.654;23.370;2023-03-11T02:38:26;92641.84;;;10.38;85.77
36932;BME280;22847;42.654;23.370;2023-03-11T02:41:00;92834.75;;;11.61;86.46
36932;BME280;22847;42.654;23.370;2023-03-11T02:43:46;92721.66;;;10.46;88.56
36932;BME280;22847;42.654;23.370;2023-03-11T02:46:13;92645.44;;;10.37;86.57
36932;BME280;22847;42.654;23.370;2023-03-11T02:48:39;92841.59;;;11.69;85.66
36932;BME280;22847;42.654;23.370;2023-03-11T02:51:05;92806.25;;;11.12;87.13
36932;BME280;22847;42.654;23.370;2023-03-11T02:53:34;92812.31;;;10.91;88.60
36932;BME280;22847;42.654;23.370;2023-03-11T02:56:02;92845.38;;;11.18;87.89
36932;BME280;22847;42.654;23.370;2023-03-11T02:58:27;92878.66;;;10.82;89.99
36932;BME280;22847;42.654;23.370;2023-03-11T03:00:52;92853.81;;;10.86;92.14
36932;BME280;22847;42.654;23.370;2023-03-11T03:03:18;92855.97;;;10.76;92.71
36932;BME280;22847;42.654;23.370;2023-03-11T03:05:43;92828.78;;;10.36;94.07
36932;BME280;22847;42.654;23.370;2023-03-11T03:08:10;92852.47;;;10.41;95.46
36932;BME280;22847;42.654;23.370;2023-03-11T03:10:36;92844.97;;;10.53;94.51
36932;BME280;22847;42.654;23.370;2023-03-11T03:13:01;92840.94;;;10.78;92.29
36932;BME280;22847;42.654;23.370;2023-03-11T03:15:26;92690.31;;;9.77;91.18
36932;BME280;22847;42.654;23.370;2023-03-11T03:17:52;92822.31;;;10.53;91.47
36932;BME280;22847;42.654;23.370;2023-03-11T03:20:18;92851.88;;;10.67;91.99
36932;BME280;22847;42.654;23.370;2023-03-11T03:22:44;92716.44;;;9.69;93.13
36932;BME280;22847;42.654;23.370;2023-03-11T03:25:10;92852.16;;;10.08;96.90
36932;BME280;22847;42.654;23.370;2023-03-11T03:27:36;92848.38;;;10.11;96.66
36932;BME280;22847;42.654;23.370;2023-03-11T03:30:02;92840.72;;;10.09;95.66
36932;BME280;22847;42.654;23.370;2023-03-11T03:32:27;92660.47;;;9.09;95.31
36932;BME280;22847;42.654;23.370;2023-03-11T03:34:53;92665.41;;;9.47;91.52
36932;BME280;22847;42.654;23.370;2023-03-11T03:37:24;92659.06;;;9.77;89.88
36932;BME280;22847;42.654;23.370;2023-03-11T03:39:50;92848.16;;;11.10;89.36
36932;BME280;22847;42.654;23.370;2023-03-11T03:42:15;92847.59;;;11.22;87.28
36932;BME280;22847;42.654;23.370;2023-03-11T03:44:41;92877.75;;;11.31;87.03
36932;BME280;22847;42.654;23.370;2023-03-11T03:47:06;92640.31;;;9.88;87.22
36932;BME280;22847;42.654;23.370;2023-03-11T03:49:31;92848.91;;;11.39;85.63
36932;BME280;22847;42.654;23.370;2023-03-11T03:51:57;92839.00;;;11.28;86.18
36932;BME280;22847;42.654;23.370;2023-03-11T03:54:22;92758.63;;;11.03;85.45
36932;BME280;22847;42.654;23.370;2023-03-11T03:56:48;92804.13;;;11.35;83.43
36932;BME280;22847;42.654;23.370;2023-03-11T03:59:13;92822.75;;;11.73;82.83
36932;BME280;22847;42.654;23.370;2023-03-11T04:01:38;92837.84;;;11.78;82.27
36932;BME280;22847;42.654;23.370;2023-03-11T04:04:04;92865.28;;;11.26;85.97
36932;BME280;22847;42.654;23.370;2023-03-11T04:06:29;92757.03;;;11.02;85.55
36932;BME280;22847;42.654;23.370;2023-03-11T04:08:55;92852.56;;;11.51;83.99
36932;BME280;22847;42.654;23.370;2023-03-11T04:11:21;92817.38;;;11.34;84.08
36932;BME280;22847;42.654;23.370;2023-03-11T04:13:46;92661.47;;;10.34;83.74
36932;BME280;22847;42.654;23.370;2023-03-11T04:16:18;92864.66;;;11.65;83.87
36932;BME280;22847;42.654;23.370;2023-03-11T04:18:43;92767.25;;;11.04;84.61
36932;BME280;22847;42.654;23.370;2023-03-11T04:21:09;92634.28;;;10.43;83.22
36932;BME280;22847;42.654;23.370;2023-03-11T04:23:35;92850.13;;;11.84;82.86
36932;BME280;22847;42.654;23.370;2023-03-11T04:26:00;92655.91;;;10.44;82.21
36932;BME280;22847;42.654;23.370;2023-03-11T04:28:26;92827.75;;;11.21;82.40
36932;BME280;22847;42.654;23.370;2023-03-11T04:30:51;92638.19;;;10.26;82.19
36932;BME280;22847;42.654;23.370;2023-03-11T04:33:17;92862.16;;;11.85;81.64
36932;BME280;22847;42.654;23.370;2023-03-11T04:35:42;92707.81;;;10.86;82.50
36932;BME280;22847;42.654;23.370;2023-03-11T04:38:08;92882.22;;;11.84;82.42
36932;BME280;22847;42.654;23.370;2023-03-11T04:40:33;92854.19;;;11.17;82.76
36932;BME280;22847;42.654;23.370;2023-03-11T04:42:58;92848.72;;;11.06;83.50
36932;BME280;22847;42.654;23.370;2023-03-11T04:45:24;92846.06;;;10.99;82.05
36932;BME280;22847;42.654;23.370;2023-03-11T04:47:50;92858.81;;;11.15;81.88
36932;BME280;22847;42.654;23.370;2023-03-11T04:50:16;92831.06;;;11.42;80.05
36932;BME280;22847;42.654;23.370;2023-03-11T04:52:42;92817.78;;;11.44;78.31
36932;BME280;22847;42.654;23.370;2023-03-11T04:55:08;92659.41;;;10.64;77.53
36932;BME280;22847;42.654;23.370;2023-03-11T04:57:34;92681.91;;;10.71;77.71
36932;BME280;22847;42.654;23.370;2023-03-11T04:59:59;92819.38;;;11.86;77.11
36932;BME280;22847;42.654;23.370;2023-03-11T05:02:25;92851.75;;;12.04;75.67
36932;BME280;22847;42.654;23.370;2023-03-11T05:04:50;92817.38;;;11.94;71.26
36932;BME280;22847;42.654;23.370;2023-03-11T05:07:15;92859.22;;;12.14;73.88
36932;BME280;22847;42.654;23.370;2023-03-11T05:09:41;92716.84;;;11.38;74.04
36932;BME280;22847;42.654;23.370;2023-03-11T05:12:08;92864.09;;;12.37;74.21
36932;BME280;22847;42.654;23.370;2023-03-11T05:14:35;92716.25;;;11.49;72.20
36932;BME280;22847;42.654;23.370;2023-03-11T05:17:00;92861.69;;;12.42;69.23
36932;BME280;22847;42.654;23.370;2023-03-11T05:19:25;92732.72;;;11.49;70.33
36932;BME280;22847;42.654;23.370;2023-03-11T05:21:59;92695.56;;;10.80;69.65
36932;BME280;22847;42.654;23.370;2023-03-11T05:24:24;92723.78;;;11.11;69.44
36932;BME280;22847;42.654;23.370;2023-03-11T05:26:50;92880.09;;;12.07;69.73
36932;BME280;22847;42.654;23.370;2023-03-11T05:29:16;92887.97;;;12.21;70.11
36932;BME280;22847;42.654;23.370;2023-03-11T05:31:42;92697.69;;;11.17;67.35
36932;BME280;22847;42.654;23.370;2023-03-11T05:34:07;92847.34;;;12.25;66.61
36932;BME280;22847;42.654;23.370;2023-03-11T05:36:33;92882.81;;;12.73;61.77
36932;BME280;22847;42.654;23.370;2023-03-11T05:38:58;92880.19;;;12.73;63.22
36932;BME280;22847;42.654;23.370;2023-03-11T05:41:23;92873.75;;;12.69;62.09
36932;BME280;22847;42.654;23.370;2023-03-11T05:43:49;92897.28;;;12.82;61.81
36932;BME280;22847;42.654;23.370;2023-03-11T05:46:14;92736.75;;;11.52;61.64
36932;BME280;22847;42.654;23.370;2023-03-11T05:48:40;92818.81;;;12.17;62.72
36932;BME280;22847;42.654;23.370;2023-03-11T05:51:09;92866.28;;;12.33;61.92
36932;BME280;22847;42.654;23.370;2023-03-11T05:53:35;92779.28;;;11.46;63.55
36932;BME280;22847;42.654;23.370;2023-03-11T05:56:01;92845.53;;;12.05;63.64
36932;BME280;22847;42.654;23.370;2023-03-11T05:58:27;92936.59;;;12.22;64.78
36932;BME280;22847;42.654;23.370;2023-03-11T06:00:53;92928.78;;;12.28;63.20
36932;BME280;22847;42.654;23.370;2023-03-11T06:03:18;92938.09;;;12.64;62.26
36932;BME280;22847;42.654;23.370;2023-03-11T06:05:45;92930.06;;;12.65;63.50
36932;BME280;22847;42.654;23.370;2023-03-11T06:08:10;92935.91;;;12.74;63.07
36932;BME280;22847;42.654;23.370;2023-03-11T06:10:36;92932.69;;;12.65;64.32
36932;BME280;22847;42.654;23.370;2023-03-11T06:13:01;92969.69;;;12.75;64.73
36932;BME280;22847;42.654;23.370;2023-03-11T06:15:27;92937.31;;;12.76;64.50
36932;BME280;22847;42.654;23.370;2023-03-11T06:17:52;92943.31;;;12.50;65.30
36932;BME280;22847;42.654;23.370;2023-03-11T06:20:18;92934.66;;;12.43;66.07
36932;BME280;22847;42.654;23.370;2023-03-11T06:22:43;92687.19;;;10.85;64.64
36932;BME280;22847;42.654;23.370;2023-03-11T06:25:08;92948.34;;;12.52;65.39
36932;BME280;22847;42.654;23.370;2023-03-11T06:27:34;92951.94;;;12.38;66.92
36932;BME280;22847;42.654;23.370;2023-03-11T06:29:59;92942.94;;;12.73;65.29
36932;BME280;22847;42.654;23.370;2023-03-11T06:32:25;92912.66;;;12.05;65.81
36932;BME280;22847;42.654;23.370;2023-03-11T06:34:51;92939.00;;;12.17;66.35
36932;BME280;22847;42.654;23.370;2023-03-11T06:37:17;92975.25;;;12.33;66.56
36932;BME280;22847;42.654;23.370;2023-03-11T06:39:43;92940.88;;;12.36;66.10
36932;BME280;22847;42.654;23.370;2023-03-11T06:42:09;92946.25;;;12.21;66.11
36932;BME280;22847;42.654;23.370;2023-03-11T06:44:35;92944.47;;;12.28;65.88
36932;BME280;22847;42.654;23.370;2023-03-11T06:47:02;92913.69;;;12.11;66.03
36932;BME280;22847;42.654;23.370;2023-03-11T06:49:27;92955.41;;;12.65;65.28
36932;BME280;22847;42.654;23.370;2023-03-11T06:51:52;92899.25;;;12.47;64.96
36932;BME280;22847;42.654;23.370;2023-03-11T06:54:18;92907.91;;;12.48;64.85
36932;BME280;22847;42.654;23.370;2023-03-11T06:56:43;92916.00;;;12.73;64.48
36932;BME280;22847;42.654;23.370;2023-03-11T06:59:09;92909.75;;;12.80;63.75
36932;BME280;22847;42.654;23.370;2023-03-11T07:01:34;92795.50;;;11.95;63.18
36932;BME280;22847;42.654;23.370;2023-03-11T07:04:00;92751.06;;;11.76;62.68
36932;BME280;22847;42.654;23.370;2023-03-11T07:06:26;92946.59;;;12.92;62.54
36932;BME280;22847;42.654;23.370;2023-03-11T07:08:52;92940.56;;;12.91;63.36
36932;BME280;22847;42.654;23.370;2023-03-11T07:11:24;92778.44;;;12.19;62.55
36932;BME280;22847;42.654;23.370;2023-03-11T07:13:50;92926.25;;;12.74;62.71
36932;BME280;22847;42.654;23.370;2023-03-11T07:16:19;92765.13;;;11.81;63.04
36932;BME280;22847;42.654;23.370;2023-03-11T07:18:46;92748.66;;;11.74;63.80
36932;BME280;22847;42.654;23.370;2023-03-11T07:21:17;92890.66;;;12.73;62.73
36932;BME280;22847;42.654;23.370;2023-03-11T07:23:43;92956.84;;;13.00;62.91
36932;BME280;22847;42.654;23.370;2023-03-11T07:26:13;92971.56;;;13.21;62.88
36932;BME280;22847;42.654;23.370;2023-03-11T07:28:40;92795.34;;;12.56;64.03
36932;BME280;22847;42.654;23.370;2023-03-11T07:31:14;92894.66;;;13.22;61.17
36932;BME280;22847;42.654;23.370;2023-03-11T07:33:40;92852.19;;;13.20;61.26
36932;BME280;22847;42.654;23.370;2023-03-11T07:36:08;92831.06;;;13.02;61.32
36932;BME280;22847;42.654;23.370;2023-03-11T07:38:34;92695.81;;;12.25;60.70
36932;BME280;22847;42.654;23.370;2023-03-11T07:40:59;92885.34;;;13.52;59.46
36932;BME280;22847;42.654;23.370;2023-03-11T07:43:25;92727.59;;;12.41;59.82
36932;BME280;22847;42.654;23.370;2023-03-11T07:45:50;92870.91;;;13.88;61.27
36932;BME280;22847;42.654;23.370;2023-03-11T07:48:16;92930.91;;;14.85;59.87
36932;BME280;22847;42.654;23.370;2023-03-11T07:50:41;92912.09;;;15.62;57.55
36932;BME280;22847;42.654;23.370;2023-03-11T07:53:07;92897.50;;;16.32;53.25
36932;BME280;22847;42.654;23.370;2023-03-11T07:55:32;92884.22;;;16.99;51.61
36932;BME280;22847;42.654;23.370;2023-03-11T07:57:58;92793.31;;;16.61;50.04
36932;BME280;22847;42.654;23.370;2023-03-11T08:00:24;92884.25;;;17.22;49.57
36932;BME280;22847;42.654;23.370;2023-03-11T08:02:49;92866.50;;;17.40;48.35
36932;BME280;22847;42.654;23.370;2023-03-11T08:05:15;92862.59;;;17.55;48.15
36932;BME280;22847;42.654;23.370;2023-03-11T08:07:40;92826.50;;;17.55;47.85
36932;BME280;22847;42.654;23.370;2023-03-11T08:10:06;92858.25;;;18.23;46.33
36932;BME280;22847;42.654;23.370;2023-03-11T08:12:32;92818.91;;;18.22;46.95
36932;BME280;22847;42.654;23.370;2023-03-11T08:14:57;92854.38;;;18.88;45.38
36932;BME280;22847;42.654;23.370;2023-03-11T08:17:23;92828.03;;;19.09;43.73
36932;BME280;22847;42.654;23.370;2023-03-11T08:19:48;92796.88;;;18.73;43.07
36932;BME280;22847;42.654;23.370;2023-03-11T08:22:14;92841.84;;;18.95;43.22
36932;BME280;22847;42.654;23.370;2023-03-11T08:24:39;92830.44;;;18.33;42.85
36932;BME280;22847;42.654;23.370;2023-03-11T08:27:05;92777.94;;;18.19;44.65
36932;BME280;22847;42.654;23.370;2023-03-11T08:29:30;92804.28;;;18.76;43.13
36932;BME280;22847;42.654;23.370;2023-03-11T08:31:56;92800.91;;;18.97;40.66
36932;BME280;22847;42.654;23.370;2023-03-11T08:34:21;92810.34;;;18.60;40.63
36932;BME280;22847;42.654;23.370;2023-03-11T08:36:47;92821.78;;;18.37;41.97
36932;BME280;22847;42.654;23.370;2023-03-11T08:39:12;92731.66;;;17.83;42.64
36932;BME280;22847;42.654;23.370;2023-03-11T08:41:38;92819.56;;;18.74;40.85
36932;BME280;22847;42.654;23.370;2023-03-11T08:44:03;92806.03;;;19.21;41.03
36932;BME280;22847;42.654;23.370;2023-03-11T08:46:30;92669.56;;;18.71;39.86
36932;BME280;22847;42.654;23.370;2023-03-11T08:48:57;92790.44;;;19.41;39.65
36932;BME280;22847;42.654;23.370;2023-03-11T08:51:23;92768.88;;;19.10;39.76
36932;BME280;22847;42.654;23.370;2023-03-11T08:53:49;92751.19;;;18.73;39.11
36932;BME280;22847;42.654;23.370;2023-03-11T08:56:15;92794.28;;;18.95;40.20
36932;BME280;22847;42.654;23.370;2023-03-11T08:58:40;92758.13;;;18.95;39.81
36932;BME280;22847;42.654;23.370;2023-03-11T09:01:07;92778.50;;;19.16;39.19
36932;BME280;22847;42.654;23.370;2023-03-11T09:03:34;92779.63;;;19.42;40.62
36932;BME280;22847;42.654;23.370;2023-03-11T09:06:01;92591.63;;;18.30;38.93
36932;BME280;22847;42.654;23.370;2023-03-11T09:08:28;92773.66;;;19.69;39.81
36932;BME280;22847;42.654;23.370;2023-03-11T09:10:53;92666.66;;;19.11;39.63
36932;BME280;22847;42.654;23.370;2023-03-11T09:13:19;92752.00;;;19.93;38.46
36932;BME280;22847;42.654;23.370;2023-03-11T09:15:44;92764.78;;;20.01;37.85
36932;BME280;22847;42.654;23.370;2023-03-11T09:18:14;92751.66;;;19.63;39.02
36932;BME280;22847;42.654;23.370;2023-03-11T09:20:40;92601.13;;;18.31;39.04
36932;BME280;22847;42.654;23.370;2023-03-11T09:23:07;92642.88;;;18.17;39.29
36932;BME280;22847;42.654;23.370;2023-03-11T09:25:32;92773.88;;;18.57;41.06
36932;BME280;22847;42.654;23.370;2023-03-11T09:27:57;92769.09;;;18.70;41.17
36932;BME280;22847;42.654;23.370;2023-03-11T09:30:23;92612.81;;;17.85;41.12
36932;BME280;22847;42.654;23.370;2023-03-11T09:32:48;92627.41;;;17.76;40.85
36932;BME280;22847;42.654;23.370;2023-03-11T09:35:14;92770.47;;;18.73;43.04
36932;BME280;22847;42.654;23.370;2023-03-11T09:37:39;92761.00;;;18.77;41.29
36932;BME280;22847;42.654;23.370;2023-03-11T09:40:05;92765.13;;;19.06;41.46
36932;BME280;22847;42.654;23.370;2023-03-11T09:45:10;92761.91;;;19.21;42.49
36932;BME280;22847;42.654;23.370;2023-03-11T09:47:56;92751.34;;;19.59;41.85
36932;BME280;22847;42.654;23.370;2023-03-11T09:50:31;92761.38;;;19.57;41.12
36932;BME280;22847;42.654;23.370;2023-03-11T09:53:11;92644.91;;;18.82;39.65
36932;BME280;22847;42.654;23.370;2023-03-11T09:55:46;92753.56;;;19.68;39.81
36932;BME280;22847;42.654;23.370;2023-03-11T10:00:50;92744.94;;;19.77;40.14
36932;BME280;22847;42.654;23.370;2023-03-11T10:03:26;92567.91;;;18.90;38.88
36932;BME280;22847;42.654;23.370;2023-03-11T10:06:05;92586.56;;;18.45;37.81
36932;BME280;22847;42.654;23.370;2023-03-11T10:08:39;92760.47;;;19.30;38.34
36932;BME280;22847;42.654;23.370;2023-03-11T10:22:09;92765.25;;;19.72;36.81
36932;BME280;22847;42.654;23.370;2023-03-11T10:24:57;92755.47;;;19.72;36.58
36932;BME280;22847;42.654;23.370;2023-03-11T10:27:30;92720.38;;;19.16;35.91
36932;BME280;22847;42.654;23.370;2023-03-11T10:30:08;92772.41;;;19.16;36.38
36932;BME280;22847;42.654;23.370;2023-03-11T10:32:48;92754.06;;;18.54;38.09
36932;BME280;22847;42.654;23.370;2023-03-11T10:35:23;92777.19;;;18.52;38.91
36932;BME280;22847;42.654;23.370;2023-03-11T10:37:53;92787.56;;;18.25;38.58
36932;BME280;22847;42.654;23.370;2023-03-11T10:40:35;92788.47;;;18.48;39.42
36932;BME280;22847;42.654;23.370;2023-03-11T10:43:05;92693.06;;;18.22;39.46
36932;BME280;22847;42.654;23.370;2023-03-11T10:45:38;92456.06;;;16.52;37.34
36932;BME280;22847;42.654;23.370;2023-03-11T10:48:14;92610.25;;;17.17;37.58
36932;BME280;22847;42.654;23.370;2023-03-11T10:50:49;92757.47;;;17.42;41.10
36932;BME280;22847;42.654;23.370;2023-03-11T10:53:22;92738.47;;;17.28;41.33
36932;BME280;22847;42.654;23.370;2023-03-11T10:55:52;92773.88;;;16.97;44.26
36932;BME280;22847;42.654;23.370;2023-03-11T10:58:28;92745.03;;;16.90;45.16
36932;BME280;22847;42.654;23.370;2023-03-11T11:01:15;92614.03;;;15.88;44.98
36932;BME280;22847;42.654;23.370;2023-03-11T11:03:43;92750.91;;;16.28;44.93
36932;BME280;22847;42.654;23.370;2023-03-11T11:06:31;92799.72;;;16.24;45.31
36932;BME280;22847;42.654;23.370;2023-03-11T11:09:26;92802.56;;;15.92;46.82
36932;BME280;22847;42.654;23.370;2023-03-11T11:14:50;92775.06;;;16.48;46.45
36932;BME280;22847;42.654;23.370;2023-03-11T11:17:20;92787.84;;;17.09;47.13
36932;BME280;22847;42.654;23.370;2023-03-11T11:19:47;92760.53;;;17.38;45.66
36932;BME280;22847;42.654;23.370;2023-03-11T11:22:20;92770.03;;;17.51;44.82
36932;BME280;22847;42.654;23.370;2023-03-11T11:24:48;92767.97;;;17.65;44.76
36932;BME280;22847;42.654;23.370;2023-03-11T11:27:22;92763.16;;;17.62;43.94
36932;BME280;22847;42.654;23.370;2023-03-11T11:32:28;92772.88;;;17.73;44.05
36932;BME280;22847;42.654;23.370;2023-03-11T11:34:59;92663.69;;;16.77;44.56
36932;BME280;22847;42.654;23.370;2023-03-11T11:37:26;92781.41;;;17.28;45.47
36932;BME280;22847;42.654;23.370;2023-03-11T11:40:03;92676.84;;;16.77;47.27
36932;BME280;22847;42.654;23.370;2023-03-11T11:42:42;92733.81;;;16.95;45.00
36932;BME280;22847;42.654;23.370;2023-03-11T11:47:59;92703.75;;;16.79;46.27
36932;BME280;22847;42.654;23.370;2023-03-11T11:50:30;92725.78;;;17.13;45.95
36932;BME280;22847;42.654;23.370;2023-03-11T11:53:47;92726.94;;;17.06;46.95
36932;BME280;22847;42.654;23.370;2023-03-11T11:55:50;92683.16;;;17.16;45.47
36932;BME280;22847;42.654;23.370;2023-03-11T11:58:17;92707.25;;;17.60;46.13
36932;BME280;22847;42.654;23.370;2023-03-11T12:08:49;92709.72;;;18.23;41.58
36932;BME280;22847;42.654;23.370;2023-03-11T12:11:33;92572.94;;;17.36;39.83
36932;BME280;22847;42.654;23.370;2023-03-11T12:14:15;92686.81;;;17.95;37.96
36932;BME280;22847;42.654;23.370;2023-03-11T12:16:56;92567.88;;;17.18;39.13
36932;BME280;22847;42.654;23.370;2023-03-11T12:26:51;92694.97;;;18.10;38.91
36932;BME280;22847;42.654;23.370;2023-03-11T12:29:31;92673.06;;;17.93;39.73
36932;BME280;22847;42.654;23.370;2023-03-11T12:31:59;92722.97;;;18.45;38.97
36932;BME280;22847;42.654;23.370;2023-03-11T12:34:26;92660.63;;;18.05;37.68
36932;BME280;22847;42.654;23.370;2023-03-11T12:36:55;92694.41;;;18.42;37.41
36932;BME280;22847;42.654;23.370;2023-03-11T12:39:26;92698.19;;;18.12;38.90
36932;BME280;22847;42.654;23.370;2023-03-11T12:42:17;92667.44;;;17.73;40.16
36932;BME280;22847;42.654;23.370;2023-03-11T12:44:44;92690.19;;;17.79;40.27
36932;BME280;22847;42.654;23.370;2023-03-11T12:49:39;92711.25;;;17.51;41.15
36932;BME280;22847;42.654;23.370;2023-03-11T12:54:45;92734.63;;;17.47;41.49
36932;BME280;22847;42.654;23.370;2023-03-11T13:05:22;92594.94;;;16.62;43.20
36932;BME280;22847;42.654;23.370;2023-03-11T13:08:24;92720.63;;;17.18;43.72
36932;BME280;22847;42.654;23.370;2023-03-11T13:10:52;92730.25;;;17.13;42.82
36932;BME280;22847;42.654;23.370;2023-03-11T13:15:52;92708.94;;;17.14;43.57
36932;BME280;22847;42.654;23.370;2023-03-11T13:18:26;92582.38;;;16.29;43.32
36932;BME280;22847;42.654;23.370;2023-03-11T13:20:54;92764.91;;;17.21;43.62
36932;BME280;22847;42.654;23.370;2023-03-11T13:23:35;92599.56;;;15.67;43.96
36932;BME280;22847;42.654;23.370;2023-03-11T13:26:09;92754.44;;;16.75;43.75
36932;BME280;22847;42.654;23.370;2023-03-11T13:31:35;92478.34;;;14.76;44.91
36932;BME280;22847;42.654;23.370;2023-03-11T13:34:13;92797.03;;;16.53;45.60
36932;BME280;22847;42.654;23.370;2023-03-11T13:36:53;92791.34;;;16.57;47.68
36932;BME280;22847;42.654;23.370;2023-03-11T13:42:19;92821.72;;;15.63;54.17
36932;BME280;22847;42.654;23.370;2023-03-11T13:44:46;92843.78;;;15.19;56.48
36932;BME280;22847;42.654;23.370;2023-03-11T13:47:14;92827.34;;;15.30;56.76
36932;BME280;22847;42.654;23.370;2023-03-11T13:52:37;92655.94;;;13.51;60.12
36932;BME280;22847;42.654;23.370;2023-03-11T13:55:06;92841.63;;;14.35;61.77
36932;BME280;22847;42.654;23.370;2023-03-11T13:57:35;92883.78;;;14.40;62.26
36932;BME280;22847;42.654;23.370;2023-03-11T14:00:21;92765.16;;;13.82;62.86
36932;BME280;22847;42.654;23.370;2023-03-11T14:03:10;92844.63;;;14.07;64.96
36932;BME280;22847;42.654;23.370;2023-03-11T14:05:44;92694.69;;;12.91;65.46